sensor_id;sensor_type;location;lat;lon;timestamp;pressure;altitude;pressure_sealevel;temperature;humidity
16777;BME280;8505;49.456;8.164;2023-12-04T00:00:05;99974.16;;;-2.00;88.16
16777;BME280;8505;49.456;8.164;2023-12-04T00:02:33;99977.00;;;-2.05;88.75
16777;BME280;8505;49.456;8.164;2023-12-04T00:05:01;99972.06;;;-2.09;88.85
16777;BME280;8505;49.456;8.164;2023-12-04T00:07:29;99952.81;;;-2.05;88.18
16777;BME280;8505;49.456;8.164;2023-12-04T00:09:58;99960.84;;;-2.10;88.60
16777;BME280;8505;49.456;8.164;2023-12-04T00:12:25;99953.66;;;-2.05;88.50
16777;BME280;8505;49.456;8.164;2023-12-04T00:14:53;99950.38;;;-2.08;88.18
16777;BME280;8505;49.456;8.164;2023-12-04T00:17:21;99951.91;;;-2.04;88.77
16777;BME280;8505;49.456;8.164;2023-12-04T00:19:48;99944.13;;;-2.20;88.78
16777;BME280;8505;49.456;8.164;2023-12-04T00:22:16;99951.44;;;-1.96;88.51
16777;BME280;8505;49.456;8.164;2023-12-04T00:24:44;99946.38;;;-1.84;87.71
16777;BME280;8505;49.456;8.164;2023-12-04T00:27:13;99940.69;;;-1.75;86.61
16777;BME280;8505;49.456;8.164;2023-12-04T00:29:41;99949.19;;;-2.03;86.88
16777;BME280;8505;49.456;8.164;2023-12-04T00:32:08;99943.56;;;-2.25;88.13
16777;BME280;8505;49.456;8.164;2023-12-04T00:34:36;99940.47;;;-1.86;87.20
16777;BME280;8505;49.456;8.164;2023-12-04T00:37:04;99937.41;;;-1.92;87.70
16777;BME280;8505;49.456;8.164;2023-12-04T00:39:31;99933.75;;;-2.04;88.07
16777;BME280;8505;49.456;8.164;2023-12-04T00:41:59;99927.97;;;-2.09;87.56
16777;BME280;8505;49.456;8.164;2023-12-04T00:44:29;99924.72;;;-2.13;87.86
16777;BME280;8505;49.456;8.164;2023-12-04T00:46:56;99915.78;;;-2.23;88.85
16777;BME280;8505;49.456;8.164;2023-12-04T00:49:24;99912.88;;;-2.32;89.47
16777;BME280;8505;49.456;8.164;2023-12-04T00:51:52;99915.19;;;-2.28;89.86
16777;BME280;8505;49.456;8.164;2023-12-04T00:54:19;99914.03;;;-2.22;89.56
16777;BME280;8505;49.456;8.164;2023-12-04T00:56:47;99906.69;;;-2.30;88.92
16777;BME280;8505;49.456;8.164;2023-12-04T00:59:14;99909.28;;;-2.30;89.57
16777;BME280;8505;49.456;8.164;2023-12-04T01:01:43;99895.31;;;-2.43;89.33
16777;BME280;8505;49.456;8.164;2023-12-04T01:04:11;99901.59;;;-2.31;89.48
16777;BME280;8505;49.456;8.164;2023-12-04T01:06:39;99913.91;;;-2.35;89.02
16777;BME280;8505;49.456;8.164;2023-12-04T01:09:06;99909.69;;;-2.37;89.38
16777;BME280;8505;49.456;8.164;2023-12-04T01:11:34;99908.09;;;-2.40;89.80
16777;BME280;8505;49.456;8.164;2023-12-04T01:14:03;99900.84;;;-2.49;89.13
16777;BME280;8505;49.456;8.164;2023-12-04T01:16:31;99895.94;;;-2.54;90.61
16777;BME280;8505;49.456;8.164;2023-12-04T01:19:00;99895.81;;;-2.52;90.09
16777;BME280;8505;49.456;8.164;2023-12-04T01:21:28;99887.63;;;-2.45;89.29
16777;BME280;8505;49.456;8.164;2023-12-04T01:23:57;99884.53;;;-2.35;89.35
16777;BME280;8505;49.456;8.164;2023-12-04T01:26:24;99881.84;;;-2.34;89.69
16777;BME280;8505;49.456;8.164;2023-12-04T01:28:52;99886.19;;;-2.34;89.48
16777;BME280;8505;49.456;8.164;2023-12-04T01:31:20;99884.44;;;-2.34;88.35
16777;BME280;8505;49.456;8.164;2023-12-04T01:33:47;99880.25;;;-2.36;89.22
16777;BME280;8505;49.456;8.164;2023-12-04T01:36:17;99884.63;;;-2.37;89.04
16777;BME280;8505;49.456;8.164;2023-12-04T01:38:45;99878.75;;;-2.40;88.79
16777;BME280;8505;49.456;8.164;2023-12-04T01:41:13;99877.41;;;-2.32;88.94
16777;BME280;8505;49.456;8.164;2023-12-04T01:43:41;99873.06;;;-2.31;88.98
16777;BME280;8505;49.456;8.164;2023-12-04T01:46:09;99871.94;;;-2.27;88.61
16777;BME280;8505;49.456;8.164;2023-12-04T01:48:37;99868.78;;;-2.32;88.34
16777;BME280;8505;49.456;8.164;2023-12-04T01:51:07;99865.72;;;-2.39;88.72
16777;BME280;8505;49.456;8.164;2023-12-04T01:53:38;99868.22;;;-2.37;88.00
16777;BME280;8505;49.456;8.164;2023-12-04T01:56:07;99861.44;;;-2.40;88.14
16777;BME280;8505;49.456;8.164;2023-12-04T01:58:36;99855.00;;;-2.33;88.55
16777;BME280;8505;49.456;8.164;2023-12-04T02:01:05;99845.31;;;-2.45;87.88
16777;BME280;8505;49.456;8.164;2023-12-04T02:03:33;99850.16;;;-2.39;87.77
16777;BME280;8505;49.456;8.164;2023-12-04T02:06:01;99853.94;;;-2.45;88.11
16777;BME280;8505;49.456;8.164;2023-12-04T02:08:30;99844.25;;;-2.41;88.56
16777;BME280;8505;49.456;8.164;2023-12-04T02:11:00;99848.66;;;-2.43;88.42
16777;BME280;8505;49.456;8.164;2023-12-04T02:13:27;99844.31;;;-2.42;88.11
16777;BME280;8505;49.456;8.164;2023-12-04T02:15:58;99835.88;;;-2.46;87.91
16777;BME280;8505;49.456;8.164;2023-12-04T02:18:29;99843.00;;;-2.50;88.80
16777;BME280;8505;49.456;8.164;2023-12-04T02:20:57;99838.72;;;-2.51;88.72
16777;BME280;8505;49.456;8.164;2023-12-04T02:23:25;99839.06;;;-2.57;88.50
16777;BME280;8505;49.456;8.164;2023-12-04T02:25:58;99838.16;;;-2.56;88.48
16777;BME280;8505;49.456;8.164;2023-12-04T02:28:28;99839.69;;;-2.67;87.44
16777;BME280;8505;49.456;8.164;2023-12-04T02:30:59;99839.34;;;-2.61;89.00
16777;BME280;8505;49.456;8.164;2023-12-04T02:33:28;99829.81;;;-2.61;89.06
16777;BME280;8505;49.456;8.164;2023-12-04T02:35:57;99823.28;;;-2.68;88.25
16777;BME280;8505;49.456;8.164;2023-12-04T02:38:26;99817.34;;;-2.54;88.24
16777;BME280;8505;49.456;8.164;2023-12-04T02:40:56;99818.25;;;-2.55;88.05
16777;BME280;8505;49.456;8.164;2023-12-04T02:43:23;99812.53;;;-2.46;87.62
16777;BME280;8505;49.456;8.164;2023-12-04T02:45:51;99811.53;;;-2.43;87.02
16777;BME280;8505;49.456;8.164;2023-12-04T02:48:19;99813.34;;;-2.60;87.21
16777;BME280;8505;49.456;8.164;2023-12-04T02:50:47;99805.66;;;-2.61;88.23
16777;BME280;8505;49.456;8.164;2023-12-04T02:53:14;99801.53;;;-2.65;88.39
16777;BME280;8505;49.456;8.164;2023-12-04T02:55:42;99793.44;;;-2.59;88.17
16777;BME280;8505;49.456;8.164;2023-12-04T02:58:11;99801.53;;;-2.50;87.53
16777;BME280;8505;49.456;8.164;2023-12-04T03:00:39;99798.34;;;-2.55;87.12
16777;BME280;8505;49.456;8.164;2023-12-04T03:03:07;99796.13;;;-2.61;87.92
16777;BME280;8505;49.456;8.164;2023-12-04T03:05:35;99786.88;;;-2.51;88.15
16777;BME280;8505;49.456;8.164;2023-12-04T03:08:03;99787.44;;;-2.46;86.30
16777;BME280;8505;49.456;8.164;2023-12-04T03:10:30;99770.41;;;-2.50;86.92
16777;BME280;8505;49.456;8.164;2023-12-04T03:12:58;99761.72;;;-2.49;86.68
16777;BME280;8505;49.456;8.164;2023-12-04T03:15:27;99771.91;;;-2.46;86.83
16777;BME280;8505;49.456;8.164;2023-12-04T03:17:58;99762.16;;;-2.56;86.05
16777;BME280;8505;49.456;8.164;2023-12-04T03:20:28;99760.41;;;-2.56;86.27
16777;BME280;8505;49.456;8.164;2023-12-04T03:22:56;99751.97;;;-2.59;86.38
16777;BME280;8505;49.456;8.164;2023-12-04T03:25:24;99746.56;;;-2.70;86.37
16777;BME280;8505;49.456;8.164;2023-12-04T03:27:51;99746.13;;;-2.63;86.53
16777;BME280;8505;49.456;8.164;2023-12-04T03:30:19;99751.63;;;-2.53;86.37
16777;BME280;8505;49.456;8.164;2023-12-04T03:32:48;99742.75;;;-2.49;85.48
16777;BME280;8505;49.456;8.164;2023-12-04T03:35:16;99736.31;;;-2.58;86.32
16777;BME280;8505;49.456;8.164;2023-12-04T03:37:44;99730.78;;;-2.52;86.16
16777;BME280;8505;49.456;8.164;2023-12-04T03:40:12;99726.44;;;-2.51;86.19
16777;BME280;8505;49.456;8.164;2023-12-04T03:42:39;99719.22;;;-2.46;85.18
16777;BME280;8505;49.456;8.164;2023-12-04T03:45:08;99717.63;;;-2.63;85.39
16777;BME280;8505;49.456;8.164;2023-12-04T03:47:36;99719.56;;;-2.52;84.66
16777;BME280;8505;49.456;8.164;2023-12-04T03:50:06;99723.13;;;-2.53;84.78
16777;BME280;8505;49.456;8.164;2023-12-04T03:52:34;99724.19;;;-2.57;84.62
16777;BME280;8505;49.456;8.164;2023-12-04T03:55:02;99728.19;;;-2.66;85.09
16777;BME280;8505;49.456;8.164;2023-12-04T03:57:30;99726.59;;;-2.68;85.18
16777;BME280;8505;49.456;8.164;2023-12-04T03:59:58;99720.47;;;-2.67;85.05
16777;BME280;8505;49.456;8.164;2023-12-04T04:02:26;99721.41;;;-2.68;85.30
16777;BME280;8505;49.456;8.164;2023-12-04T04:04:53;99727.06;;;-2.62;84.42
16777;BME280;8505;49.456;8.164;2023-12-04T04:07:23;99723.78;;;-2.65;84.74
16777;BME280;8505;49.456;8.164;2023-12-04T04:09:50;99717.69;;;-2.64;84.90
16777;BME280;8505;49.456;8.164;2023-12-04T04:12:18;99715.31;;;-2.67;84.98
16777;BME280;8505;49.456;8.164;2023-12-04T04:14:46;99715.38;;;-2.69;84.62
16777;BME280;8505;49.456;8.164;2023-12-04T04:17:14;99723.72;;;-2.64;84.79
16777;BME280;8505;49.456;8.164;2023-12-04T04:19:41;99716.38;;;-2.71;84.40
16777;BME280;8505;49.456;8.164;2023-12-04T04:22:09;99719.22;;;-2.60;84.51
16777;BME280;8505;49.456;8.164;2023-12-04T04:24:38;99726.50;;;-2.67;84.53
16777;BME280;8505;49.456;8.164;2023-12-04T04:27:06;99721.22;;;-2.65;84.53
16777;BME280;8505;49.456;8.164;2023-12-04T04:29:33;99728.53;;;-2.72;84.21
16777;BME280;8505;49.456;8.164;2023-12-04T04:32:01;99722.16;;;-2.66;84.87
16777;BME280;8505;49.456;8.164;2023-12-04T04:34:29;99719.84;;;-2.57;84.29
16777;BME280;8505;49.456;8.164;2023-12-04T04:36:57;99716.16;;;-2.53;83.51
16777;BME280;8505;49.456;8.164;2023-12-04T04:39:25;99706.00;;;-2.71;84.03
16777;BME280;8505;49.456;8.164;2023-12-04T04:41:54;99705.78;;;-2.67;84.49
16777;BME280;8505;49.456;8.164;2023-12-04T04:44:22;99701.03;;;-2.74;84.71
16777;BME280;8505;49.456;8.164;2023-12-04T04:46:51;99697.97;;;-2.81;84.48
16777;BME280;8505;49.456;8.164;2023-12-04T04:49:19;99698.00;;;-2.53;83.86
16777;BME280;8505;49.456;8.164;2023-12-04T04:51:47;99695.72;;;-2.43;83.22
16777;BME280;8505;49.456;8.164;2023-12-04T04:54:14;99699.88;;;-2.40;83.50
16777;BME280;8505;49.456;8.164;2023-12-04T04:56:42;99696.56;;;-2.42;83.52
16777;BME280;8505;49.456;8.164;2023-12-04T04:59:11;99686.38;;;-2.31;83.11
16777;BME280;8505;49.456;8.164;2023-12-04T05:01:39;99682.19;;;-2.34;82.90
16777;BME280;8505;49.456;8.164;2023-12-04T05:04:07;99683.47;;;-2.55;83.21
16777;BME280;8505;49.456;8.164;2023-12-04T05:06:35;99674.06;;;-2.42;83.42
16777;BME280;8505;49.456;8.164;2023-12-04T05:09:03;99688.31;;;-2.49;83.72
16777;BME280;8505;49.456;8.164;2023-12-04T05:11:31;99680.63;;;-2.51;83.65
16777;BME280;8505;49.456;8.164;2023-12-04T05:13:58;99677.22;;;-2.37;83.23
16777;BME280;8505;49.456;8.164;2023-12-04T05:16:27;99678.41;;;-2.28;82.61
16777;BME280;8505;49.456;8.164;2023-12-04T05:18:55;99674.72;;;-2.24;82.92
16777;BME280;8505;49.456;8.164;2023-12-04T05:21:23;99679.44;;;-2.31;82.67
16777;BME280;8505;49.456;8.164;2023-12-04T05:23:51;99677.84;;;-2.33;83.10
16777;BME280;8505;49.456;8.164;2023-12-04T05:26:19;99684.16;;;-2.23;83.17
16777;BME280;8505;49.456;8.164;2023-12-04T05:28:46;99679.34;;;-2.29;82.95
16777;BME280;8505;49.456;8.164;2023-12-04T05:31:14;99672.13;;;-2.24;83.15
16777;BME280;8505;49.456;8.164;2023-12-04T05:33:43;99672.66;;;-2.33;83.52
16777;BME280;8505;49.456;8.164;2023-12-04T05:36:11;99657.50;;;-2.25;83.24
16777;BME280;8505;49.456;8.164;2023-12-04T05:38:39;99653.69;;;-2.34;83.81
16777;BME280;8505;49.456;8.164;2023-12-04T05:41:06;99663.97;;;-2.32;83.17
16777;BME280;8505;49.456;8.164;2023-12-04T05:43:34;99661.75;;;-2.24;83.41
16777;BME280;8505;49.456;8.164;2023-12-04T05:46:02;99662.75;;;-2.55;85.05
16777;BME280;8505;49.456;8.164;2023-12-04T05:48:30;99646.94;;;-2.36;84.25
16777;BME280;8505;49.456;8.164;2023-12-04T05:50:59;99649.88;;;-2.28;84.22
16777;BME280;8505;49.456;8.164;2023-12-04T05:53:27;99646.38;;;-2.13;83.82
16777;BME280;8505;49.456;8.164;2023-12-04T05:55:55;99639.16;;;-2.36;83.02
16777;BME280;8505;49.456;8.164;2023-12-04T05:58:23;99641.75;;;-2.22;84.04
16777;BME280;8505;49.456;8.164;2023-12-04T06:00:50;99643.97;;;-2.16;83.86
16777;BME280;8505;49.456;8.164;2023-12-04T06:03:18;99642.66;;;-2.09;83.32
16777;BME280;8505;49.456;8.164;2023-12-04T06:05:46;99636.28;;;-2.18;83.77
16777;BME280;8505;49.456;8.164;2023-12-04T06:08:15;99635.25;;;-2.15;83.74
16777;BME280;8505;49.456;8.164;2023-12-04T06:10:43;99636.91;;;-2.28;84.25
16777;BME280;8505;49.456;8.164;2023-12-04T06:13:10;99632.50;;;-2.55;84.70
16777;BME280;8505;49.456;8.164;2023-12-04T06:15:38;99626.19;;;-2.22;84.31
16777;BME280;8505;49.456;8.164;2023-12-04T06:18:06;99614.31;;;-2.12;83.37
16777;BME280;8505;49.456;8.164;2023-12-04T06:20:33;99614.69;;;-2.18;83.86
16777;BME280;8505;49.456;8.164;2023-12-04T06:23:01;99618.22;;;-2.19;83.84
16777;BME280;8505;49.456;8.164;2023-12-04T06:25:31;99611.16;;;-2.03;83.49
16777;BME280;8505;49.456;8.164;2023-12-04T06:27:59;99607.72;;;-2.04;83.10
16777;BME280;8505;49.456;8.164;2023-12-04T06:30:28;99606.34;;;-2.09;83.63
16777;BME280;8505;49.456;8.164;2023-12-04T06:32:56;99594.66;;;-2.02;83.02
16777;BME280;8505;49.456;8.164;2023-12-04T06:35:25;99585.44;;;-2.20;84.08
16777;BME280;8505;49.456;8.164;2023-12-04T06:37:53;99581.34;;;-2.10;83.57
16777;BME280;8505;49.456;8.164;2023-12-04T06:40:22;99584.50;;;-2.05;83.61
16777;BME280;8505;49.456;8.164;2023-12-04T06:42:51;99581.59;;;-2.00;83.47
16777;BME280;8505;49.456;8.164;2023-12-04T06:45:20;99580.59;;;-1.98;83.47
16777;BME280;8505;49.456;8.164;2023-12-04T06:47:50;99582.06;;;-2.08;84.02
16777;BME280;8505;49.456;8.164;2023-12-04T06:50:18;99583.75;;;-2.07;83.85
16777;BME280;8505;49.456;8.164;2023-12-04T06:52:46;99579.75;;;-1.98;84.09
16777;BME280;8505;49.456;8.164;2023-12-04T06:55:13;99571.78;;;-2.10;84.40
16777;BME280;8505;49.456;8.164;2023-12-04T06:57:41;99575.72;;;-2.17;83.76
16777;BME280;8505;49.456;8.164;2023-12-04T07:00:12;99568.94;;;-2.05;82.67
16777;BME280;8505;49.456;8.164;2023-12-04T07:02:48;99563.06;;;-2.09;83.51
16777;BME280;8505;49.456;8.164;2023-12-04T07:05:16;99565.19;;;-2.01;83.68
16777;BME280;8505;49.456;8.164;2023-12-04T07:07:45;99564.06;;;-1.97;83.51
16777;BME280;8505;49.456;8.164;2023-12-04T07:10:13;99563.50;;;-1.88;83.10
16777;BME280;8505;49.456;8.164;2023-12-04T07:12:44;99561.91;;;-1.90;82.61
16777;BME280;8505;49.456;8.164;2023-12-04T07:15:14;99560.69;;;-2.12;83.40
16777;BME280;8505;49.456;8.164;2023-12-04T07:17:42;99557.31;;;-1.99;83.42
16777;BME280;8505;49.456;8.164;2023-12-04T07:20:10;99555.75;;;-2.02;82.71
16777;BME280;8505;49.456;8.164;2023-12-04T07:22:39;99562.75;;;-1.90;83.17
16777;BME280;8505;49.456;8.164;2023-12-04T07:25:07;99554.97;;;-1.90;82.74
16777;BME280;8505;49.456;8.164;2023-12-04T07:27:35;99558.00;;;-1.83;82.87
16777;BME280;8505;49.456;8.164;2023-12-04T07:30:04;99545.78;;;-1.81;81.70
16777;BME280;8505;49.456;8.164;2023-12-04T07:32:34;99549.31;;;-1.82;81.69
16777;BME280;8505;49.456;8.164;2023-12-04T07:35:02;99553.75;;;-1.84;81.93
16777;BME280;8505;49.456;8.164;2023-12-04T07:37:30;99557.03;;;-1.95;82.50
16777;BME280;8505;49.456;8.164;2023-12-04T07:39:58;99552.38;;;-1.90;82.28
16777;BME280;8505;49.456;8.164;2023-12-04T07:42:26;99549.34;;;-2.23;82.51
16777;BME280;8505;49.456;8.164;2023-12-04T07:44:54;99544.91;;;-1.94;82.18
16777;BME280;8505;49.456;8.164;2023-12-04T07:47:22;99546.13;;;-2.00;82.64
16777;BME280;8505;49.456;8.164;2023-12-04T07:49:52;99538.56;;;-1.90;82.47
16777;BME280;8505;49.456;8.164;2023-12-04T07:52:20;99545.91;;;-1.97;82.92
16777;BME280;8505;49.456;8.164;2023-12-04T07:54:48;99536.41;;;-1.84;82.19
16777;BME280;8505;49.456;8.164;2023-12-04T07:57:16;99539.97;;;-1.72;82.59
16777;BME280;8505;49.456;8.164;2023-12-04T07:59:44;99533.38;;;-1.64;82.46
16777;BME280;8505;49.456;8.164;2023-12-04T08:02:14;99530.03;;;-1.66;81.91
16777;BME280;8505;49.456;8.164;2023-12-04T08:04:42;99524.44;;;-1.59;82.40
16777;BME280;8505;49.456;8.164;2023-12-04T08:07:11;99520.63;;;-1.54;81.83
16777;BME280;8505;49.456;8.164;2023-12-04T08:09:39;99517.94;;;-1.52;81.99
16777;BME280;8505;49.456;8.164;2023-12-04T08:12:07;99517.53;;;-1.46;81.64
16777;BME280;8505;49.456;8.164;2023-12-04T08:14:35;99510.16;;;-1.40;82.21
16777;BME280;8505;49.456;8.164;2023-12-04T08:17:03;99505.81;;;-1.39;81.88
16777;BME280;8505;49.456;8.164;2023-12-04T08:19:31;99516.19;;;-1.39;81.95
16777;BME280;8505;49.456;8.164;2023-12-04T08:21:59;99512.25;;;-1.32;82.47
16777;BME280;8505;49.456;8.164;2023-12-04T08:24:29;99507.91;;;-1.32;81.96
16777;BME280;8505;49.456;8.164;2023-12-04T08:26:56;99505.41;;;-1.20;81.24
16777;BME280;8505;49.456;8.164;2023-12-04T08:29:24;99511.03;;;-1.14;81.66
16777;BME280;8505;49.456;8.164;2023-12-04T08:31:52;99508.31;;;-1.25;80.76
16777;BME280;8505;49.456;8.164;2023-12-04T08:34:19;99506.97;;;-1.18;81.71
16777;BME280;8505;49.456;8.164;2023-12-04T08:36:47;99493.34;;;-1.22;80.88
16777;BME280;8505;49.456;8.164;2023-12-04T08:39:15;99494.78;;;-1.05;81.34
16777;BME280;8505;49.456;8.164;2023-12-04T08:41:45;99487.72;;;-0.90;81.05
16777;BME280;8505;49.456;8.164;2023-12-04T08:44:27;99481.63;;;-1.02;79.70
16777;BME280;8505;49.456;8.164;2023-12-04T08:46:54;99490.66;;;-0.95;81.55
16777;BME280;8505;49.456;8.164;2023-12-04T08:49:24;99480.09;;;-0.68;79.80
16777;BME280;8505;49.456;8.164;2023-12-04T08:52:05;99490.69;;;-0.46;78.92
16777;BME280;8505;49.456;8.164;2023-12-04T08:54:33;99487.28;;;-0.71;78.84
16777;BME280;8505;49.456;8.164;2023-12-04T08:57:03;99493.00;;;-0.66;78.00
16777;BME280;8505;49.456;8.164;2023-12-04T08:59:32;99489.16;;;-0.73;77.16
16777;BME280;8505;49.456;8.164;2023-12-04T09:02:00;99485.44;;;-0.82;78.02
16777;BME280;8505;49.456;8.164;2023-12-04T09:04:30;99483.38;;;-0.90;78.96
16777;BME280;8505;49.456;8.164;2023-12-04T09:06:58;99489.16;;;-0.73;78.01
16777;BME280;8505;49.456;8.164;2023-12-04T09:09:28;99479.94;;;-1.03;76.93
16777;BME280;8505;49.456;8.164;2023-12-04T09:11:57;99497.00;;;-1.11;77.82
16777;BME280;8505;49.456;8.164;2023-12-04T09:14:26;99487.53;;;-1.00;77.88
16777;BME280;8505;49.456;8.164;2023-12-04T09:16:55;99479.53;;;-0.97;76.90
16777;BME280;8505;49.456;8.164;2023-12-04T09:19:23;99480.88;;;-1.04;77.13
16777;BME280;8505;49.456;8.164;2023-12-04T09:21:51;99486.06;;;-1.04;77.15
16777;BME280;8505;49.456;8.164;2023-12-04T09:24:33;99478.81;;;-1.11;77.37
16777;BME280;8505;49.456;8.164;2023-12-04T09:27:01;99473.59;;;-0.99;76.64
16777;BME280;8505;49.456;8.164;2023-12-04T09:29:30;99487.22;;;-1.08;76.42
16777;BME280;8505;49.456;8.164;2023-12-04T09:31:58;99478.00;;;-1.12;77.12
16777;BME280;8505;49.456;8.164;2023-12-04T09:34:26;99475.69;;;-1.04;76.52
16777;BME280;8505;49.456;8.164;2023-12-04T09:36:54;99490.44;;;-1.04;76.88
16777;BME280;8505;49.456;8.164;2023-12-04T09:39:34;99487.84;;;-1.17;77.36
16777;BME280;8505;49.456;8.164;2023-12-04T09:42:02;99485.38;;;-1.06;76.76
16777;BME280;8505;49.456;8.164;2023-12-04T09:44:32;99487.41;;;-1.11;77.18
16777;BME280;8505;49.456;8.164;2023-12-04T09:47:01;99471.63;;;-0.95;76.91
16777;BME280;8505;49.456;8.164;2023-12-04T09:49:31;99480.56;;;-0.87;76.14
16777;BME280;8505;49.456;8.164;2023-12-04T09:52:00;99480.34;;;-0.84;76.12
16777;BME280;8505;49.456;8.164;2023-12-04T09:54:28;99475.75;;;-0.80;74.70
16777;BME280;8505;49.456;8.164;2023-12-04T09:56:57;99484.28;;;-0.78;nan
16777;BME280;8505;49.456;8.164;2023-12-04T09:59:26;99469.94;;;-0.71;74.96
16777;BME280;8505;49.456;8.164;2023-12-04T10:01:57;99472.84;;;-0.63;74.73
16777;BME280;8505;49.456;8.164;2023-12-04T10:04:25;99473.34;;;-0.58;74.47
16777;BME280;8505;49.456;8.164;2023-12-04T10:06:52;99466.19;;;-0.79;74.65
16777;BME280;8505;49.456;8.164;2023-12-04T10:09:20;99465.34;;;-0.67;75.65
16777;BME280;8505;49.456;8.164;2023-12-04T10:11:50;99456.38;;;-0.51;75.71
16777;BME280;8505;49.456;8.164;2023-12-04T10:14:19;99456.63;;;-0.43;75.76
16777;BME280;8505;49.456;8.164;2023-12-04T10:16:48;99451.38;;;-0.54;75.20
16777;BME280;8505;49.456;8.164;2023-12-04T10:19:20;99451.72;;;-0.71;76.23
16777;BME280;8505;49.456;8.164;2023-12-04T10:21:50;99450.31;;;-0.75;77.66
16777;BME280;8505;49.456;8.164;2023-12-04T10:24:31;99449.63;;;-0.66;78.41
16777;BME280;8505;49.456;8.164;2023-12-04T10:27:03;99437.78;;;-0.57;79.20
16777;BME280;8505;49.456;8.164;2023-12-04T10:29:41;99436.53;;;-0.64;79.15
16777;BME280;8505;49.456;8.164;2023-12-04T10:32:09;99435.38;;;-0.60;79.65
16777;BME280;8505;49.456;8.164;2023-12-04T10:34:41;99430.72;;;-0.68;79.79
16777;BME280;8505;49.456;8.164;2023-12-04T10:37:10;99418.72;;;-0.94;80.56
16777;BME280;8505;49.456;8.164;2023-12-04T10:39:46;99419.97;;;-0.87;81.76
16777;BME280;8505;49.456;8.164;2023-12-04T10:42:23;99415.28;;;-0.82;82.07
16777;BME280;8505;49.456;8.164;2023-12-04T10:44:52;99410.41;;;-0.87;82.93
16777;BME280;8505;49.456;8.164;2023-12-04T10:47:20;99399.78;;;-0.84;83.35
16777;BME280;8505;49.456;8.164;2023-12-04T10:49:50;99400.56;;;-1.07;84.58
16777;BME280;8505;49.456;8.164;2023-12-04T10:52:18;99396.59;;;-1.00;85.44
16777;BME280;8505;49.456;8.164;2023-12-04T10:54:46;99394.94;;;-1.01;85.27
16777;BME280;8505;49.456;8.164;2023-12-04T10:57:21;99387.56;;;-0.94;86.18
16777;BME280;8505;49.456;8.164;2023-12-04T10:59:51;99381.59;;;-0.84;86.72
16777;BME280;8505;49.456;8.164;2023-12-04T11:02:25;99383.47;;;-0.98;86.10
16777;BME280;8505;49.456;8.164;2023-12-04T11:05:03;99375.47;;;-0.83;86.39
16777;BME280;8505;49.456;8.164;2023-12-04T11:07:35;99368.00;;;-0.87;87.21
16777;BME280;8505;49.456;8.164;2023-12-04T11:10:26;99357.41;;;-0.97;87.40
16777;BME280;8505;49.456;8.164;2023-12-04T11:12:57;99363.75;;;-1.01;88.13
16777;BME280;8505;49.456;8.164;2023-12-04T11:15:29;99360.75;;;-1.07;89.41
16777;BME280;8505;49.456;8.164;2023-12-04T11:17:59;99354.59;;;-0.94;89.77
16777;BME280;8505;49.456;8.164;2023-12-04T11:20:31;99353.94;;;-0.85;88.91
16777;BME280;8505;49.456;8.164;2023-12-04T11:23:01;99343.44;;;-0.83;89.27
16777;BME280;8505;49.456;8.164;2023-12-04T11:25:34;99338.28;;;-0.96;89.56
16777;BME280;8505;49.456;8.164;2023-12-04T11:28:03;99334.69;;;-1.06;90.81
16777;BME280;8505;49.456;8.164;2023-12-04T11:30:31;99341.75;;;-1.08;91.33
16777;BME280;8505;49.456;8.164;2023-12-04T11:33:00;99329.56;;;-0.95;90.99
16777;BME280;8505;49.456;8.164;2023-12-04T11:35:29;99317.00;;;-1.01;91.21
16777;BME280;8505;49.456;8.164;2023-12-04T11:37:58;99310.81;;;-0.87;91.14
16777;BME280;8505;49.456;8.164;2023-12-04T11:40:27;99304.56;;;-0.85;90.83
16777;BME280;8505;49.456;8.164;2023-12-04T11:42:54;99303.47;;;-0.69;90.68
16777;BME280;8505;49.456;8.164;2023-12-04T11:45:22;99292.13;;;-0.68;89.82
16777;BME280;8505;49.456;8.164;2023-12-04T11:47:51;99291.31;;;-0.93;90.30
16777;BME280;8505;49.456;8.164;2023-12-04T11:50:19;99280.44;;;-0.28;93.29
16777;BME280;8505;49.456;8.164;2023-12-04T11:52:48;99279.59;;;-0.74;91.32
16777;BME280;8505;49.456;8.164;2023-12-04T11:55:17;99284.94;;;-0.89;91.29
16777;BME280;8505;49.456;8.164;2023-12-04T11:57:45;99271.50;;;-0.83;92.26
16777;BME280;8505;49.456;8.164;2023-12-04T12:00:19;99276.69;;;-0.83;91.56
16777;BME280;8505;49.456;8.164;2023-12-04T12:03:01;99263.19;;;-0.64;91.41
16777;BME280;8505;49.456;8.164;2023-12-04T12:05:49;99268.03;;;-0.59;90.89
16777;BME280;8505;49.456;8.164;2023-12-04T12:08:20;99259.47;;;-0.72;91.18
16777;BME280;8505;49.456;8.164;2023-12-04T12:10:48;99254.25;;;-0.84;92.09
16777;BME280;8505;49.456;8.164;2023-12-04T12:13:17;99252.88;;;-0.76;91.64
16777;BME280;8505;49.456;8.164;2023-12-04T12:15:46;99235.41;;;-0.74;91.10
16777;BME280;8505;49.456;8.164;2023-12-04T12:18:14;99235.06;;;-0.70;91.93
16777;BME280;8505;49.456;8.164;2023-12-04T12:20:42;99232.75;;;-0.51;91.87
16777;BME280;8505;49.456;8.164;2023-12-04T12:23:10;99227.69;;;-0.41;90.51
16777;BME280;8505;49.456;8.164;2023-12-04T12:25:39;99224.63;;;-0.35;91.28
16777;BME280;8505;49.456;8.164;2023-12-04T12:28:07;99215.59;;;-0.53;90.74
16777;BME280;8505;49.456;8.164;2023-12-04T12:30:34;99214.38;;;-0.71;90.73
16777;BME280;8505;49.456;8.164;2023-12-04T12:33:02;99210.63;;;-0.56;91.79
16777;BME280;8505;49.456;8.164;2023-12-04T12:35:30;99202.50;;;-0.29;90.57
16777;BME280;8505;49.456;8.164;2023-12-04T12:37:58;99192.22;;;-0.42;88.94
16777;BME280;8505;49.456;8.164;2023-12-04T12:40:27;99190.59;;;-0.32;89.47
16777;BME280;8505;49.456;8.164;2023-12-04T12:43:04;99179.25;;;-0.31;88.54
16777;BME280;8505;49.456;8.164;2023-12-04T12:45:40;99176.97;;;-0.47;90.10
16777;BME280;8505;49.456;8.164;2023-12-04T12:48:12;99162.09;;;-0.22;89.98
16777;BME280;8505;49.456;8.164;2023-12-04T12:50:41;99170.16;;;-0.14;89.51
16777;BME280;8505;49.456;8.164;2023-12-04T12:53:10;99161.41;;;-0.02;88.99
16777;BME280;8505;49.456;8.164;2023-12-04T12:55:38;99163.19;;;-0.25;89.03
16777;BME280;8505;49.456;8.164;2023-12-04T12:58:08;99152.00;;;-0.49;88.69
16777;BME280;8505;49.456;8.164;2023-12-04T13:00:36;99154.75;;;-0.17;89.51
16777;BME280;8505;49.456;8.164;2023-12-04T13:03:13;99149.22;;;-0.02;87.72
16777;BME280;8505;49.456;8.164;2023-12-04T13:05:41;99140.06;;;0.15;88.34
16777;BME280;8505;49.456;8.164;2023-12-04T13:08:10;99139.97;;;0.06;86.94
16777;BME280;8505;49.456;8.164;2023-12-04T13:10:40;99130.88;;;0.11;88.15
16777;BME280;8505;49.456;8.164;2023-12-04T13:13:11;99130.88;;;-0.56;89.67
16777;BME280;8505;49.456;8.164;2023-12-04T13:15:39;99121.66;;;-0.37;89.75
16777;BME280;8505;49.456;8.164;2023-12-04T13:18:08;99111.97;;;-0.13;90.68